sensor_id;sensor_type;location;lat;lon;timestamp;P1;durP1;ratioP1;P2;durP2;ratioP2
13071;SDS011;6602;58.934;11.166;2023-03-01T00:00:29;3.40;;;2.07;;
13071;SDS011;6602;58.934;11.166;2023-03-01T00:05:32;1.97;;;1.67;;
13071;SDS011;6602;58.934;11.166;2023-03-01T00:11:02;3.50;;;1.67;;
13071;SDS011;6602;58.934;11.166;2023-03-01T00:16:31;5.83;;;1.97;;
13071;SDS011;6602;58.934;11.166;2023-03-01T00:21:53;5.83;;;2.13;;
13071;SDS011;6602;58.934;11.166;2023-03-01T00:26:59;3.07;;;2.30;;
13071;SDS011;6602;58.934;11.166;2023-03-01T00:32:04;4.17;;;2.03;;
13071;SDS011;6602;58.934;11.166;2023-03-01T00:37:15;2.67;;;1.80;;
13071;SDS011;6602;58.934;11.166;2023-03-01T00:42:23;6.57;;;2.77;;
13071;SDS011;6602;58.934;11.166;2023-03-01T00:47:42;5.57;;;2.00;;
13071;SDS011;6602;58.934;11.166;2023-03-01T00:52:46;4.60;;;2.10;;
13071;SDS011;6602;58.934;11.166;2023-03-01T00:58:05;4.80;;;1.97;;
13071;SDS011;6602;58.934;11.166;2023-03-01T01:03:10;3.13;;;1.97;;
13071;SDS011;6602;58.934;11.166;2023-03-01T01:08:15;2.10;;;1.80;;
13071;SDS011;6602;58.934;11.166;2023-03-01T01:13:18;2.73;;;1.93;;
13071;SDS011;6602;58.934;11.166;2023-03-01T01:18:23;4.50;;;1.40;;
13071;SDS011;6602;58.934;11.166;2023-03-01T01:23:30;2.53;;;1.50;;
13071;SDS011;6602;58.934;11.166;2023-03-01T01:28:34;3.50;;;1.70;;
13071;SDS011;6602;58.934;11.166;2023-03-01T01:33:56;2.73;;;1.67;;
13071;SDS011;6602;58.934;11.166;2023-03-01T01:39:05;5.67;;;1.57;;
13071;SDS011;6602;58.934;11.166;2023-03-01T01:44:26;2.63;;;1.87;;
13071;SDS011;6602;58.934;11.166;2023-03-01T01:49:38;2.93;;;1.83;;
13071;SDS011;6602;58.934;11.166;2023-03-01T01:54:56;2.87;;;1.80;;
13071;SDS011;6602;58.934;11.166;2023-03-01T02:00:27;2.80;;;1.60;;
13071;SDS011;6602;58.934;11.166;2023-03-01T02:05:53;2.70;;;1.70;;
13071;SDS011;6602;58.934;11.166;2023-03-01T02:11:24;2.90;;;1.53;;
13071;SDS011;6602;58.934;11.166;2023-03-01T02:16:31;2.83;;;1.60;;
13071;SDS011;6602;58.934;11.166;2023-03-01T02:21:54;2.50;;;1.40;;
13071;SDS011;6602;58.934;11.166;2023-03-01T02:27:22;2.77;;;1.30;;
13071;SDS011;6602;58.934;11.166;2023-03-01T02:32:31;4.63;;;1.77;;
13071;SDS011;6602;58.934;11.166;2023-03-01T02:37:38;4.07;;;2.13;;
13071;SDS011;6602;58.934;11.166;2023-03-01T02:42:53;4.37;;;1.70;;
13071;SDS011;6602;58.934;11.166;2023-03-01T02:47:57;3.83;;;2.13;;
13071;SDS011;6602;58.934;11.166;2023-03-01T02:58:03;2.70;;;1.60;;
13071;SDS011;6602;58.934;11.166;2023-03-01T03:03:04;8.30;;;1.40;;
13071;SDS011;6602;58.934;11.166;2023-03-01T03:08:07;1.93;;;1.53;;
13071;SDS011;6602;58.934;11.166;2023-03-01T03:13:13;2.43;;;1.30;;
13071;SDS011;6602;58.934;11.166;2023-03-01T03:18:15;3.47;;;1.53;;
13071;SDS011;6602;58.934;11.166;2023-03-01T03:23:17;2.13;;;1.50;;
13071;SDS011;6602;58.934;11.166;2023-03-01T03:28:17;2.00;;;1.37;;
13071;SDS011;6602;58.934;11.166;2023-03-01T03:33:19;2.57;;;1.83;;
13071;SDS011;6602;58.934;11.166;2023-03-01T03:38:19;3.37;;;1.40;;
13071;SDS011;6602;58.934;11.166;2023-03-01T03:43:24;1.97;;;1.27;;
13071;SDS011;6602;58.934;11.166;2023-03-01T03:48:25;3.30;;;1.37;;
13071;SDS011;6602;58.934;11.166;2023-03-01T03:53:29;3.60;;;1.00;;
13071;SDS011;6602;58.934;11.166;2023-03-01T03:58:36;2.30;;;1.43;;
13071;SDS011;6602;58.934;11.166;2023-03-01T04:03:36;4.27;;;1.80;;
13071;SDS011;6602;58.934;11.166;2023-03-01T04:08:37;2.53;;;1.60;;
13071;SDS011;6602;58.934;11.166;2023-03-01T04:13:44;2.03;;;1.50;;
13071;SDS011;6602;58.934;11.166;2023-03-01T04:18:46;4.37;;;1.40;;
13071;SDS011;6602;58.934;11.166;2023-03-01T04:23:47;2.33;;;1.57;;
13071;SDS011;6602;58.934;11.166;2023-03-01T04:28:52;1.90;;;1.53;;
13071;SDS011;6602;58.934;11.166;2023-03-01T04:33:54;2.10;;;1.20;;
13071;SDS011;6602;58.934;11.166;2023-03-01T04:38:58;1.57;;;1.40;;
13071;SDS011;6602;58.934;11.166;2023-03-01T04:43:59;2.67;;;1.53;;
13071;SDS011;6602;58.934;11.166;2023-03-01T04:49:00;2.53;;;1.60;;
13071;SDS011;6602;58.934;11.166;2023-03-01T04:54:03;1.60;;;1.43;;
13071;SDS011;6602;58.934;11.166;2023-03-01T04:59:13;2.93;;;1.40;;
13071;SDS011;6602;58.934;11.166;2023-03-01T05:04:18;2.50;;;1.57;;
13071;SDS011;6602;58.934;11.166;2023-03-01T05:09:18;2.67;;;1.77;;
13071;SDS011;6602;58.934;11.166;2023-03-01T05:14:21;2.57;;;1.43;;
13071;SDS011;6602;58.934;11.166;2023-03-01T05:19:24;3.47;;;1.90;;
13071;SDS011;6602;58.934;11.166;2023-03-01T05:24:30;6.20;;;3.10;;
13071;SDS011;6602;58.934;11.166;2023-03-01T05:29:32;3.80;;;2.17;;
13071;SDS011;6602;58.934;11.166;2023-03-01T05:34:41;5.73;;;1.70;;
13071;SDS011;6602;58.934;11.166;2023-03-01T05:39:45;2.80;;;1.70;;
13071;SDS011;6602;58.934;11.166;2023-03-01T05:45:05;1.50;;;1.27;;
13071;SDS011;6602;58.934;11.166;2023-03-01T05:50:13;2.97;;;1.70;;
13071;SDS011;6602;58.934;11.166;2023-03-01T05:55:23;2.90;;;1.20;;
13071;SDS011;6602;58.934;11.166;2023-03-01T06:00:27;2.33;;;1.40;;
13071;SDS011;6602;58.934;11.166;2023-03-01T06:05:32;3.83;;;1.70;;
13071;SDS011;6602;58.934;11.166;2023-03-01T06:10:33;2.13;;;1.60;;
13071;SDS011;6602;58.934;11.166;2023-03-01T06:15:35;4.53;;;1.93;;
13071;SDS011;6602;58.934;11.166;2023-03-01T06:20:39;5.93;;;2.43;;
13071;SDS011;6602;58.934;11.166;2023-03-01T06:25:46;3.10;;;1.60;;
13071;SDS011;6602;58.934;11.166;2023-03-01T06:30:49;3.47;;;2.33;;
13071;SDS011;6602;58.934;11.166;2023-03-01T06:35:55;4.73;;;2.90;;
13071;SDS011;6602;58.934;11.166;2023-03-01T06:40:56;3.97;;;2.43;;
13071;SDS011;6602;58.934;11.166;2023-03-01T06:46:05;4.73;;;2.67;;
13071;SDS011;6602;58.934;11.166;2023-03-01T06:51:07;3.10;;;1.63;;
13071;SDS011;6602;58.934;11.166;2023-03-01T06:56:20;3.13;;;1.60;;
13071;SDS011;6602;58.934;11.166;2023-03-01T07:01:21;5.50;;;3.07;;
13071;SDS011;6602;58.934;11.166;2023-03-01T07:06:25;5.30;;;3.53;;
13071;SDS011;6602;58.934;11.166;2023-03-01T07:11:26;5.47;;;3.80;;
13071;SDS011;6602;58.934;11.166;2023-03-01T07:16:29;5.33;;;2.93;;
13071;SDS011;6602;58.934;11.166;2023-03-01T07:21:33;6.37;;;2.87;;
13071;SDS011;6602;58.934;11.166;2023-03-01T07:26:33;7.47;;;2.90;;
13071;SDS011;6602;58.934;11.166;2023-03-01T07:31:34;9.50;;;2.33;;
13071;SDS011;6602;58.934;11.166;2023-03-01T07:36:39;3.73;;;2.00;;
13071;SDS011;6602;58.934;11.166;2023-03-01T07:41:43;4.60;;;2.50;;
13071;SDS011;6602;58.934;11.166;2023-03-01T07:46:43;7.97;;;2.10;;
13071;SDS011;6602;58.934;11.166;2023-03-01T07:51:53;4.23;;;2.33;;
13071;SDS011;6602;58.934;11.166;2023-03-01T07:56:56;2.70;;;1.70;;
13071;SDS011;6602;58.934;11.166;2023-03-01T08:02:04;2.37;;;1.60;;
13071;SDS011;6602;58.934;11.166;2023-03-01T08:07:09;2.33;;;1.60;;
13071;SDS011;6602;58.934;11.166;2023-03-01T08:12:28;2.33;;;1.20;;
13071;SDS011;6602;58.934;11.166;2023-03-01T08:17:48;1.50;;;1.07;;
13071;SDS011;6602;58.934;11.166;2023-03-01T08:23:09;2.70;;;1.00;;
13071;SDS011;6602;58.934;11.166;2023-03-01T08:28:28;1.30;;;0.90;;
13071;SDS011;6602;58.934;11.166;2023-03-01T08:33:48;1.60;;;1.07;;
13071;SDS011;6602;58.934;11.166;2023-03-01T08:39:14;1.50;;;1.13;;
13071;SDS011;6602;58.934;11.166;2023-03-01T08:44:35;3.13;;;1.20;;
13071;SDS011;6602;58.934;11.166;2023-03-01T08:49:41;1.07;;;0.80;;
13071;SDS011;6602;58.934;11.166;2023-03-01T08:55:01;2.50;;;0.93;;
13071;SDS011;6602;58.934;11.166;2023-03-01T09:00:20;0.97;;;0.80;;
13071;SDS011;6602;58.934;11.166;2023-03-01T09:05:40;1.43;;;0.73;;
13071;SDS011;6602;58.934;11.166;2023-03-01T09:11:01;1.70;;;0.90;;
13071;SDS011;6602;58.934;11.166;2023-03-01T09:16:22;0.70;;;0.70;;
13071;SDS011;6602;58.934;11.166;2023-03-01T09:21:42;1.30;;;1.10;;
13071;SDS011;6602;58.934;11.166;2023-03-01T09:27:00;1.10;;;0.87;;
13071;SDS011;6602;58.934;11.166;2023-03-01T09:32:21;1.87;;;1.00;;
13071;SDS011;6602;58.934;11.166;2023-03-01T09:37:40;0.90;;;0.60;;
13071;SDS011;6602;58.934;11.166;2023-03-01T09:43:06;2.53;;;0.90;;
13071;SDS011;6602;58.934;11.166;2023-03-01T09:48:41;1.90;;;0.80;;
13071;SDS011;6602;58.934;11.166;2023-03-01T09:54:10;0.90;;;0.50;;
13071;SDS011;6602;58.934;11.166;2023-03-01T09:59:51;1.40;;;0.50;;
13071;SDS011;6602;58.934;11.166;2023-03-01T10:05:37;1.07;;;0.60;;
13071;SDS011;6602;58.934;11.166;2023-03-01T10:11:23;0.50;;;0.50;;
13071;SDS011;6602;58.934;11.166;2023-03-01T10:16:51;0.40;;;0.40;;
13071;SDS011;6602;58.934;11.166;2023-03-01T10:22:21;0.60;;;0.40;;
13071;SDS011;6602;58.934;11.166;2023-03-01T10:27:54;0.77;;;0.70;;
13071;SDS011;6602;58.934;11.166;2023-03-01T10:33:23;0.67;;;0.63;;
13071;SDS011;6602;58.934;11.166;2023-03-01T10:38:51;1.40;;;0.50;;
13071;SDS011;6602;58.934;11.166;2023-03-01T10:44:21;0.40;;;0.40;;
13071;SDS011;6602;58.934;11.166;2023-03-01T10:50:04;0.57;;;0.50;;
13071;SDS011;6602;58.934;11.166;2023-03-01T10:55:39;0.40;;;0.40;;
13071;SDS011;6602;58.934;11.166;2023-03-01T11:01:08;2.50;;;0.57;;
13071;SDS011;6602;58.934;11.166;2023-03-01T11:07:00;1.33;;;0.60;;
13071;SDS011;6602;58.934;11.166;2023-03-01T11:12:21;1.23;;;1.03;;
13071;SDS011;6602;58.934;11.166;2023-03-01T11:17:42;0.93;;;0.83;;
13071;SDS011;6602;58.934;11.166;2023-03-01T11:23:12;0.77;;;0.60;;
13071;SDS011;6602;58.934;11.166;2023-03-01T11:28:33;1.00;;;0.40;;
13071;SDS011;6602;58.934;11.166;2023-03-01T11:34:02;0.80;;;0.60;;
13071;SDS011;6602;58.934;11.166;2023-03-01T11:39:37;0.40;;;0.40;;
13071;SDS011;6602;58.934;11.166;2023-03-01T12:03:02;0.63;;;0.30;;
13071;SDS011;6602;58.934;11.166;2023-03-01T12:20:31;1.33;;;0.30;;
13071;SDS011;6602;58.934;11.166;2023-03-01T12:25:56;0.37;;;0.37;;
13071;SDS011;6602;58.934;11.166;2023-03-01T12:37:29;2.37;;;0.50;;
13071;SDS011;6602;58.934;11.166;2023-03-01T13:23:47;0.43;;;0.43;;
13071;SDS011;6602;58.934;11.166;2023-03-01T13:29:11;0.77;;;0.60;;
13071;SDS011;6602;58.934;11.166;2023-03-01T13:34:46;0.50;;;0.40;;
13071;SDS011;6602;58.934;11.166;2023-03-01T13:45:42;1.03;;;0.50;;
13071;SDS011;6602;58.934;11.166;2023-03-01T13:51:03;1.13;;;0.60;;
13071;SDS011;6602;58.934;11.166;2023-03-01T13:56:27;1.20;;;0.53;;
13071;SDS011;6602;58.934;11.166;2023-03-01T14:01:53;0.93;;;0.43;;
13071;SDS011;6602;58.934;11.166;2023-03-01T14:07:18;1.30;;;0.60;;
13071;SDS011;6602;58.934;11.166;2023-03-01T14:12:54;1.63;;;0.40;;
13071;SDS011;6602;58.934;11.166;2023-03-01T14:18:29;0.70;;;0.40;;
13071;SDS011;6602;58.934;11.166;2023-03-01T14:24:02;0.50;;;0.40;;
13071;SDS011;6602;58.934;11.166;2023-03-01T14:29:26;0.60;;;0.47;;
13071;SDS011;6602;58.934;11.166;2023-03-01T14:34:54;0.93;;;0.63;;
13071;SDS011;6602;58.934;11.166;2023-03-01T14:40:24;0.77;;;0.50;;
13071;SDS011;6602;58.934;11.166;2023-03-01T14:45:47;0.57;;;0.40;;
13071;SDS011;6602;58.934;11.166;2023-03-01T14:51:09;1.37;;;0.40;;
13071;SDS011;6602;58.934;11.166;2023-03-01T14:56:43;0.83;;;0.40;;
13071;SDS011;6602;58.934;11.166;2023-03-01T15:02:08;1.37;;;0.40;;
13071;SDS011;6602;58.934;11.166;2023-03-01T15:07:40;0.57;;;0.47;;
13071;SDS011;6602;58.934;11.166;2023-03-01T15:13:34;0.67;;;0.40;;
13071;SDS011;6602;58.934;11.166;2023-03-01T15:18:57;4.63;;;0.50;;
13071;SDS011;6602;58.934;11.166;2023-03-01T15:24:20;0.80;;;0.40;;
13071;SDS011;6602;58.934;11.166;2023-03-01T15:29:54;0.87;;;0.50;;
13071;SDS011;6602;58.934;11.166;2023-03-01T15:41:19;0.30;;;0.30;;
13071;SDS011;6602;58.934;11.166;2023-03-01T15:47:06;2.10;;;0.40;;
13071;SDS011;6602;58.934;11.166;2023-03-01T15:52:42;0.20;;;0.20;;
13071;SDS011;6602;58.934;11.166;2023-03-01T16:03:29;0.33;;;0.30;;
13071;SDS011;6602;58.934;11.166;2023-03-01T16:08:49;0.60;;;0.37;;
13071;SDS011;6602;58.934;11.166;2023-03-01T16:13:59;1.37;;;0.80;;
13071;SDS011;6602;58.934;11.166;2023-03-01T16:19:19;1.00;;;0.60;;
13071;SDS011;6602;58.934;11.166;2023-03-01T16:24:24;2.17;;;1.30;;
13071;SDS011;6602;58.934;11.166;2023-03-01T16:29:41;3.50;;;1.60;;
13071;SDS011;6602;58.934;11.166;2023-03-01T16:35:01;2.03;;;1.40;;
13071;SDS011;6602;58.934;11.166;2023-03-01T16:40:22;2.60;;;1.10;;
13071;SDS011;6602;58.934;11.166;2023-03-01T16:51:01;0.87;;;0.83;;
13071;SDS011;6602;58.934;11.166;2023-03-01T16:56:08;0.60;;;0.57;;
13071;SDS011;6602;58.934;11.166;2023-03-01T17:01:29;2.63;;;0.50;;
13071;SDS011;6602;58.934;11.166;2023-03-01T17:06:37;0.50;;;0.50;;
13071;SDS011;6602;58.934;11.166;2023-03-01T17:11:49;0.80;;;0.60;;
13071;SDS011;6602;58.934;11.166;2023-03-01T17:17:01;6.80;;;1.50;;
13071;SDS011;6602;58.934;11.166;2023-03-01T17:22:21;2.10;;;0.63;;
13071;SDS011;6602;58.934;11.166;2023-03-01T17:27:25;2.43;;;0.40;;
13071;SDS011;6602;58.934;11.166;2023-03-01T17:32:44;0.50;;;0.50;;
13071;SDS011;6602;58.934;11.166;2023-03-01T17:38:04;0.77;;;0.53;;
13071;SDS011;6602;58.934;11.166;2023-03-01T17:43:18;0.60;;;0.53;;
13071;SDS011;6602;58.934;11.166;2023-03-01T17:48:38;0.63;;;0.50;;
13071;SDS011;6602;58.934;11.166;2023-03-01T17:53:58;0.63;;;0.40;;
13071;SDS011;6602;58.934;11.166;2023-03-01T17:59:19;1.17;;;0.53;;
13071;SDS011;6602;58.934;11.166;2023-03-01T18:04:38;2.33;;;0.47;;
13071;SDS011;6602;58.934;11.166;2023-03-01T18:09:54;0.53;;;0.40;;
13071;SDS011;6602;58.934;11.166;2023-03-01T18:15:14;1.03;;;0.40;;
13071;SDS011;6602;58.934;11.166;2023-03-01T18:20:33;0.37;;;0.37;;
13071;SDS011;6602;58.934;11.166;2023-03-01T18:25:59;1.00;;;0.40;;
13071;SDS011;6602;58.934;11.166;2023-03-01T18:31:20;0.50;;;0.30;;
13071;SDS011;6602;58.934;11.166;2023-03-01T18:36:41;4.67;;;0.90;;
13071;SDS011;6602;58.934;11.166;2023-03-01T18:42:01;1.23;;;0.50;;
13071;SDS011;6602;58.934;11.166;2023-03-01T18:47:08;0.57;;;0.40;;
13071;SDS011;6602;58.934;11.166;2023-03-01T18:52:10;1.87;;;0.50;;
13071;SDS011;6602;58.934;11.166;2023-03-01T18:57:30;0.73;;;0.40;;
13071;SDS011;6602;58.934;11.166;2023-03-01T19:02:52;0.77;;;0.40;;
13071;SDS011;6602;58.934;11.166;2023-03-01T19:08:11;0.60;;;0.40;;
13071;SDS011;6602;58.934;11.166;2023-03-01T19:13:33;1.43;;;0.80;;
13071;SDS011;6602;58.934;11.166;2023-03-01T19:18:57;1.40;;;0.90;;
13071;SDS011;6602;58.934;11.166;2023-03-01T19:24:18;3.53;;;2.13;;
13071;SDS011;6602;58.934;11.166;2023-03-01T19:29:37;3.17;;;2.23;;
13071;SDS011;6602;58.934;11.166;2023-03-01T19:34:57;12.17;;;5.00;;
13071;SDS011;6602;58.934;11.166;2023-03-01T19:40:20;10.20;;;5.47;;
13071;SDS011;6602;58.934;11.166;2023-03-01T19:45:40;8.77;;;4.00;;
13071;SDS011;6602;58.934;11.166;2023-03-01T19:50:59;6.63;;;4.40;;
13071;SDS011;6602;58.934;11.166;2023-03-01T19:56:19;7.10;;;4.30;;
13071;SDS011;6602;58.934;11.166;2023-03-01T20:01:40;8.97;;;4.50;;
13071;SDS011;6602;58.934;11.166;2023-03-01T20:07:02;11.57;;;4.20;;
13071;SDS011;6602;58.934;11.166;2023-03-01T20:12:21;5.33;;;3.33;;
13071;SDS011;6602;58.934;11.166;2023-03-01T20:17:40;5.33;;;3.33;;
13071;SDS011;6602;58.934;11.166;2023-03-01T20:22:59;8.73;;;4.27;;
13071;SDS011;6602;58.934;11.166;2023-03-01T20:28:21;7.73;;;3.87;;
13071;SDS011;6602;58.934;11.166;2023-03-01T20:33:40;6.20;;;3.93;;
13071;SDS011;6602;58.934;11.166;2023-03-01T20:39:00;8.93;;;4.60;;
13071;SDS011;6602;58.934;11.166;2023-03-01T20:44:20;6.87;;;4.17;;
13071;SDS011;6602;58.934;11.166;2023-03-01T20:49:43;5.63;;;4.33;;
13071;SDS011;6602;58.934;11.166;2023-03-01T20:55:04;10.50;;;5.73;;
13071;SDS011;6602;58.934;11.166;2023-03-01T21:00:25;8.67;;;5.77;;
13071;SDS011;6602;58.934;11.166;2023-03-01T21:05:46;14.40;;;9.10;;
13071;SDS011;6602;58.934;11.166;2023-03-01T21:11:05;7.43;;;5.47;;
13071;SDS011;6602;58.934;11.166;2023-03-01T21:16:26;7.00;;;3.83;;
13071;SDS011;6602;58.934;11.166;2023-03-01T21:21:46;8.60;;;4.13;;
13071;SDS011;6602;58.934;11.166;2023-03-01T21:27:06;5.23;;;2.43;;
13071;SDS011;6602;58.934;11.166;2023-03-01T21:32:27;11.33;;;4.67;;
13071;SDS011;6602;58.934;11.166;2023-03-01T21:37:47;9.13;;;5.40;;
13071;SDS011;6602;58.934;11.166;2023-03-01T21:43:06;9.43;;;5.80;;
13071;SDS011;6602;58.934;11.166;2023-03-01T21:48:25;13.30;;;7.60;;
13071;SDS011;6602;58.934;11.166;2023-03-01T21:53:47;9.60;;;5.53;;
13071;SDS011;6602;58.934;11.166;2023-03-01T21:59:10;10.10;;;4.23;;
13071;SDS011;6602;58.934;11.166;2023-03-01T22:04:36;4.80;;;2.00;;
13071;SDS011;6602;58.934;11.166;2023-03-01T22:09:57;6.13;;;3.57;;
13071;SDS011;6602;58.934;11.166;2023-03-01T22:15:01;9.70;;;5.23;;
13071;SDS011;6602;58.934;11.166;2023-03-01T22:20:21;5.60;;;3.80;;
13071;SDS011;6602;58.934;11.166;2023-03-01T22:25:31;4.60;;;2.63;;
13071;SDS011;6602;58.934;11.166;2023-03-01T22:30:52;4.70;;;2.70;;
13071;SDS011;6602;58.934;11.166;2023-03-01T22:35:56;6.27;;;2.73;;
13071;SDS011;6602;58.934;11.166;2023-03-01T22:41:16;4.97;;;2.50;;
13071;SDS011;6602;58.934;11.166;2023-03-01T22:46:21;4.57;;;2.13;;
13071;SDS011;6602;58.934;11.166;2023-03-01T22:51:41;3.30;;;1.70;;
13071;SDS011;6602;58.934;11.166;2023-03-01T22:57:01;2.70;;;2.00;;
13071;SDS011;6602;58.934;11.166;2023-03-01T23:02:21;4.90;;;2.03;;
13071;SDS011;6602;58.934;11.166;2023-03-01T23:07:42;8.83;;;3.00;;
13071;SDS011;6602;58.934;11.166;2023-03-01T23:13:04;4.87;;;2.70;;
13071;SDS011;6602;58.934;11.166;2023-03-01T23:18:24;2.70;;;1.90;;
13071;SDS011;6602;58.934;11.166;2023-03-01T23:23:45;4.17;;;2.23;;
13071;SDS011;6602;58.934;11.166;2023-03-01T23:29:05;2.63;;;1.87;;
13071;SDS011;6602;58.934;11.166;2023-03-01T23:34:29;4.43;;;1.77;;
13071;SDS011;6602;58.934;11.166;2023-03-01T23:39:51;3.87;;;2.17;;
13071;SDS011;6602;58.934;11.166;2023-03-01T23:45:13;5.50;;;2.20;;
13071;SDS011;6602;58.934;11.166;2023-03-01T23:50:15;3.70;;;1.97;;
13071;SDS011;6602;58.934;11.166;2023-03-01T23:55:34;3.63;;;2.20;;
